createdAt,value
2023-05-06T00:00:23.316Z,21.34
2023-05-06T00:02:50.648Z,21.33
2023-05-06T00:05:18.609Z,21.34
2023-05-06T00:07:48.978Z,21.33
2023-05-06T00:10:17.080Z,21.33
2023-05-06T00:12:44.564Z,21.33
2023-05-06T00:15:12.161Z,21.32
2023-05-06T00:17:39.544Z,21.32
2023-05-06T00:20:07.701Z,21.32
2023-05-06T00:22:34.984Z,21.33
2023-05-06T00:25:02.589Z,21.33
2023-05-06T00:27:29.843Z,21.33
2023-05-06T00:29:58.257Z,21.32
2023-05-06T00:32:25.609Z,21.31
2023-05-06T00:34:52.846Z,21.32
2023-05-06T00:37:20.093Z,21.32
2023-05-06T00:39:47.350Z,21.32
2023-05-06T00:42:14.708Z,21.31
2023-05-06T00:44:42.024Z,21.31
2023-05-06T00:47:09.421Z,21.31
2023-05-06T00:49:36.760Z,21.31
2023-05-06T00:52:04.646Z,21.31
2023-05-06T00:54:32.083Z,21.31
2023-05-06T00:56:59.345Z,21.30
2023-05-06T00:59:26.884Z,21.31
2023-05-06T01:01:54.505Z,21.30
2023-05-06T01:04:24.101Z,21.30
2023-05-06T01:07:13.616Z,21.30
2023-05-06T01:09:57.434Z,21.31
2023-05-06T01:12:39.817Z,21.30
2023-05-06T01:15:13.834Z,21.29
2023-05-06T01:17:45.393Z,21.29
2023-05-06T01:20:13.371Z,21.30
2023-05-06T01:22:41.278Z,21.29
2023-05-06T01:25:18.927Z,21.29
2023-05-06T01:27:46.440Z,21.28
2023-05-06T01:30:16.572Z,21.28
2023-05-06T01:33:05.283Z,21.29
2023-05-06T01:36:08.989Z,21.28
2023-05-06T01:38:57.904Z,21.27
2023-05-06T01:41:26.259Z,21.28
2023-05-06T01:43:54.833Z,21.28
2023-05-06T01:46:24.648Z,21.28
2023-05-06T01:48:55.225Z,21.28
2023-05-06T01:51:23.901Z,21.28
2023-05-06T01:53:51.203Z,21.28
2023-05-06T01:56:18.462Z,21.28
2023-05-06T01:58:45.846Z,21.28
2023-05-06T02:01:13.121Z,21.27
2023-05-06T02:03:40.629Z,21.27
2023-05-06T02:06:08.272Z,21.27
2023-05-06T02:08:40.460Z,21.27
2023-05-06T02:11:09.754Z,21.27
2023-05-06T02:13:37.151Z,21.27
2023-05-06T02:16:05.957Z,21.27
2023-05-06T02:18:33.293Z,21.28
2023-05-06T02:21:01.102Z,21.27
2023-05-06T02:23:28.316Z,21.27
2023-05-06T02:25:57.985Z,21.27
2023-05-06T02:28:25.810Z,21.26
2023-05-06T02:30:57.310Z,21.27
2023-05-06T02:33:25.226Z,21.26
2023-05-06T02:35:52.514Z,21.26
2023-05-06T02:38:19.902Z,21.26
2023-05-06T02:40:47.126Z,21.24
2023-05-06T02:43:14.436Z,21.26
2023-05-06T02:45:41.870Z,21.26
2023-05-06T02:48:09.155Z,21.25
2023-05-06T02:50:37.354Z,21.25
2023-05-06T02:53:04.673Z,21.26
2023-05-06T02:55:32.036Z,21.25
2023-05-06T02:57:59.228Z,21.24
2023-05-06T03:00:26.464Z,21.24
2023-05-06T03:02:53.772Z,21.24
2023-05-06T03:05:21.257Z,21.24
2023-05-06T03:07:48.667Z,21.25
2023-05-06T03:10:16.213Z,21.25
2023-05-06T03:12:43.911Z,21.24
2023-05-06T03:15:11.670Z,21.24
2023-05-06T03:17:39.340Z,21.23
2023-05-06T03:20:08.836Z,21.23
2023-05-06T03:22:38.614Z,21.23
2023-05-06T03:25:06.429Z,21.23
2023-05-06T03:27:35.568Z,21.23
2023-05-06T03:30:10.608Z,21.22
2023-05-06T03:32:38.889Z,21.22
2023-05-06T03:35:11.685Z,21.23
2023-05-06T03:37:41.111Z,21.22
2023-05-06T03:40:09.773Z,21.23
2023-05-06T03:42:37.338Z,21.23
2023-05-06T03:45:07.189Z,21.22
2023-05-06T03:47:35.045Z,21.21
2023-05-06T03:50:04.184Z,21.22
2023-05-06T03:52:33.885Z,21.21
2023-05-06T03:55:01.752Z,21.21
2023-05-06T03:57:30.715Z,21.21
2023-05-06T03:59:58.387Z,21.22
2023-05-06T04:02:29.309Z,21.23
2023-05-06T04:04:57.894Z,21.23
2023-05-06T04:07:25.203Z,21.22
2023-05-06T04:09:52.351Z,21.22
2023-05-06T04:12:19.614Z,21.22
2023-05-06T04:14:48.482Z,21.21
2023-05-06T04:17:15.967Z,21.22
2023-05-06T04:19:44.564Z,21.22
2023-05-06T04:22:11.791Z,21.21
2023-05-06T04:24:39.115Z,21.20
2023-05-06T04:27:06.471Z,21.20
2023-05-06T04:29:34.325Z,21.20
2023-05-06T04:32:04.862Z,21.19
2023-05-06T04:34:36.187Z,21.19
2023-05-06T04:37:05.719Z,21.19
2023-05-06T04:39:59.509Z,21.19
2023-05-06T04:42:27.302Z,21.19
2023-05-06T04:45:05.793Z,21.19
2023-05-06T04:47:35.514Z,21.18
2023-05-06T04:50:04.563Z,21.19
2023-05-06T04:52:32.262Z,21.17
2023-05-06T04:54:59.831Z,21.18
2023-05-06T04:57:27.150Z,21.17
2023-05-06T04:59:55.972Z,21.18
2023-05-06T05:02:23.521Z,21.17
2023-05-06T05:04:51.802Z,21.18
2023-05-06T05:07:19.555Z,21.18
2023-05-06T05:09:46.998Z,21.18
2023-05-06T05:12:14.337Z,21.18
2023-05-06T05:14:47.409Z,21.17
2023-05-06T05:17:15.492Z,21.18
2023-05-06T05:19:43.146Z,21.18
2023-05-06T05:22:11.836Z,21.18
2023-05-06T05:24:39.918Z,21.19
2023-05-06T05:27:07.607Z,21.19
2023-05-06T05:29:35.848Z,21.20
2023-05-06T05:32:06.335Z,21.20
2023-05-06T05:34:33.597Z,21.20
2023-05-06T05:37:01.882Z,21.20
2023-05-06T05:39:30.371Z,21.20
2023-05-06T05:41:58.514Z,21.20
2023-05-06T05:44:26.423Z,21.20
2023-05-06T05:46:54.928Z,21.21
2023-05-06T05:49:24.212Z,21.21
2023-05-06T05:51:53.489Z,21.21
2023-05-06T05:54:22.192Z,21.21
2023-05-06T05:56:50.602Z,21.20
2023-05-06T05:59:17.924Z,21.19
2023-05-06T06:01:47.954Z,21.20
2023-05-06T06:04:16.026Z,21.20
2023-05-06T06:06:43.714Z,21.19
2023-05-06T06:09:11.211Z,21.21
2023-05-06T06:11:39.861Z,21.21
2023-05-06T06:14:07.718Z,21.20
2023-05-06T06:16:36.973Z,21.20
2023-05-06T06:19:04.572Z,21.21
2023-05-06T06:21:32.372Z,21.21
2023-05-06T06:24:00.563Z,21.23
2023-05-06T06:26:27.841Z,21.25
2023-05-06T06:28:55.120Z,21.25
2023-05-06T06:31:22.698Z,21.24
2023-05-06T06:33:50.213Z,21.26
2023-05-06T06:36:17.655Z,21.26
2023-05-06T06:38:44.947Z,21.26
2023-05-06T06:41:12.236Z,21.26
2023-05-06T06:43:39.452Z,21.27
2023-05-06T06:46:19.933Z,21.27
2023-05-06T06:48:47.949Z,21.26
2023-05-06T06:51:15.295Z,21.27
2023-05-06T06:53:43.127Z,21.26
2023-05-06T06:56:14.122Z,21.27
2023-05-06T06:58:41.766Z,21.27
2023-05-06T07:01:10.197Z,21.27
2023-05-06T07:03:37.488Z,21.27
2023-05-06T07:06:04.746Z,21.28
2023-05-06T07:08:32.120Z,21.28
2023-05-06T07:10:59.347Z,21.29
2023-05-06T07:13:26.812Z,21.29
2023-05-06T07:15:54.077Z,21.30
2023-05-06T07:18:21.707Z,21.32
2023-05-06T07:20:48.968Z,21.32
2023-05-06T07:23:16.367Z,21.34
2023-05-06T07:25:43.697Z,21.36
2023-05-06T07:33:05.775Z,21.37
2023-05-06T07:35:33.181Z,21.38
2023-05-06T07:38:00.585Z,21.38
2023-05-06T07:40:27.936Z,21.39
2023-05-06T07:42:55.684Z,21.40
2023-05-06T07:45:24.421Z,21.40
2023-05-06T07:47:52.101Z,21.41
2023-05-06T07:50:19.631Z,21.41
2023-05-06T07:52:46.937Z,21.43
2023-05-06T07:55:14.260Z,21.45
2023-05-06T07:57:41.495Z,21.44
2023-05-06T08:00:10.117Z,21.44
2023-05-06T08:02:44.491Z,21.45
2023-05-06T08:05:13.451Z,21.47
2023-05-06T08:07:42.362Z,21.48
2023-05-06T08:10:10.366Z,21.47
2023-05-06T08:12:38.180Z,21.49
2023-05-06T08:15:06.114Z,21.49
2023-05-06T08:17:33.467Z,21.50
2023-05-06T08:20:00.803Z,21.53
2023-05-06T08:22:28.200Z,21.54
2023-05-06T08:24:55.491Z,21.54
2023-05-06T08:27:22.961Z,21.52
2023-05-06T08:29:50.354Z,21.53
2023-05-06T08:32:17.569Z,21.53
2023-05-06T08:34:44.847Z,21.55
2023-05-06T08:37:12.176Z,21.56
2023-05-06T08:39:39.448Z,21.58
2023-05-06T08:42:11.460Z,21.61
2023-05-06T08:44:38.988Z,21.61
2023-05-06T08:47:06.458Z,21.63
2023-05-06T08:49:33.801Z,21.65
2023-05-06T08:52:04.753Z,21.66
2023-05-06T08:54:35.856Z,21.68
2023-05-06T08:57:05.748Z,21.69
2023-05-06T08:59:33.833Z,21.70
2023-05-06T09:02:02.247Z,21.73
2023-05-06T09:04:30.038Z,21.76
2023-05-06T09:07:00.300Z,21.77
2023-05-06T09:09:27.552Z,21.78
2023-05-06T09:11:57.505Z,21.78
2023-05-06T09:14:25.299Z,21.80
2023-05-06T09:16:53.103Z,21.82
2023-05-06T09:19:23.362Z,21.83
2023-05-06T09:21:51.801Z,21.83
2023-05-06T09:24:20.309Z,21.82
2023-05-06T09:26:47.946Z,21.83
2023-05-06T09:29:15.741Z,21.81
2023-05-06T09:31:47.039Z,21.82
2023-05-06T09:34:15.942Z,21.82
2023-05-06T09:36:43.242Z,21.82
2023-05-06T09:39:10.866Z,21.82
2023-05-06T09:41:38.302Z,21.82
2023-05-06T09:44:06.280Z,21.83
2023-05-06T09:46:33.836Z,21.84
2023-05-06T09:49:01.655Z,21.83
2023-05-06T09:51:31.119Z,21.85
2023-05-06T09:54:00.816Z,21.85
2023-05-06T09:56:30.380Z,21.85
2023-05-06T09:59:01.333Z,21.84
2023-05-06T10:01:36.726Z,21.86
2023-05-06T10:04:08.706Z,21.86
2023-05-06T10:06:39.459Z,21.87
2023-05-06T10:09:10.572Z,21.87
2023-05-06T10:11:38.773Z,21.87
2023-05-06T10:14:06.856Z,21.88
2023-05-06T10:16:36.322Z,21.89
2023-05-06T10:19:06.778Z,21.89
2023-05-06T10:21:38.126Z,21.91
2023-05-06T10:24:07.618Z,21.91
2023-05-06T10:26:37.535Z,21.92
2023-05-06T10:29:10.349Z,21.93
2023-05-06T10:31:44.924Z,21.94
2023-05-06T10:34:12.211Z,21.94
2023-05-06T10:36:43.183Z,21.95
2023-05-06T10:39:13.707Z,21.95
2023-05-06T10:41:41.018Z,21.96
2023-05-06T10:44:10.040Z,21.96
2023-05-06T10:46:57.840Z,21.95
2023-05-06T10:49:25.511Z,21.97
2023-05-06T10:52:12.966Z,21.98
2023-05-06T10:54:51.618Z,21.98
2023-05-06T10:57:21.868Z,21.98
2023-05-06T10:59:49.491Z,21.98
2023-05-06T11:02:20.445Z,21.99
2023-05-06T11:04:53.310Z,21.98
2023-05-06T11:07:24.736Z,21.99
2023-05-06T11:10:01.150Z,21.98
2023-05-06T11:12:49.431Z,22.00
2023-05-06T11:15:36.094Z,21.99
2023-05-06T11:18:21.880Z,21.99
2023-05-06T11:20:50.833Z,21.99
2023-05-06T11:23:21.204Z,21.98
2023-05-06T11:25:48.686Z,21.99
2023-05-06T11:28:16.483Z,22.01
2023-05-06T11:30:53.837Z,22.02
2023-05-06T11:33:24.090Z,22.02
2023-05-06T11:35:51.480Z,22.01
2023-05-06T11:38:18.966Z,22.02
2023-05-06T11:40:46.222Z,22.00
2023-05-06T11:43:14.992Z,22.01
2023-05-06T11:45:47.003Z,22.00
2023-05-06T11:48:15.939Z,21.98
2023-05-06T11:50:49.896Z,21.97
2023-05-06T11:53:19.992Z,21.96
2023-05-06T11:55:48.385Z,21.96
2023-05-06T11:58:20.035Z,21.96
2023-05-06T12:00:51.453Z,21.94
2023-05-06T12:03:20.206Z,21.94
2023-05-06T12:05:48.970Z,21.94
2023-05-06T12:08:27.511Z,21.93
2023-05-06T12:11:02.214Z,21.93
2023-05-06T12:13:30.051Z,21.93
2023-05-06T12:16:01.377Z,21.93
2023-05-06T12:18:29.362Z,21.92
2023-05-06T12:20:57.524Z,21.92
2023-05-06T12:23:24.963Z,21.91
2023-05-06T12:26:06.666Z,21.91
2023-05-06T12:28:36.770Z,21.91
2023-05-06T12:31:19.159Z,21.91
2023-05-06T12:33:49.120Z,21.91
2023-05-06T12:36:17.697Z,21.91
2023-05-06T12:39:00.013Z,21.91
2023-05-06T12:41:41.680Z,21.91
2023-05-06T12:44:36.754Z,21.90
2023-05-06T12:47:07.510Z,21.90
2023-05-06T12:49:59.101Z,21.89
2023-05-06T12:52:29.995Z,21.90
2023-05-06T12:55:00.757Z,21.90
2023-05-06T12:57:28.112Z,21.90
2023-05-06T12:59:56.477Z,21.89
2023-05-06T13:02:23.995Z,21.89
2023-05-06T13:04:51.504Z,21.89
2023-05-06T13:07:18.765Z,21.90
2023-05-06T13:09:46.254Z,21.90
2023-05-06T13:12:13.604Z,21.89
2023-05-06T13:14:40.981Z,21.89
2023-05-06T13:17:08.718Z,21.88
2023-05-06T13:19:36.195Z,21.89
2023-05-06T13:22:03.919Z,21.89
2023-05-06T13:24:32.263Z,21.88
2023-05-06T13:27:01.202Z,21.88
2023-05-06T13:29:29.768Z,21.88
2023-05-06T13:31:57.721Z,21.88
2023-05-06T13:34:26.007Z,21.89
2023-05-06T13:36:54.634Z,21.89
2023-05-06T13:39:22.746Z,21.88
2023-05-06T13:41:50.272Z,21.89
2023-05-06T13:44:21.089Z,21.89
2023-05-06T13:46:48.745Z,21.89
2023-05-06T13:49:16.546Z,21.89
2023-05-06T13:51:43.952Z,21.88
2023-05-06T13:54:11.316Z,21.88
2023-05-06T13:56:38.650Z,21.90
2023-05-06T13:59:08.146Z,21.90
2023-05-06T14:01:36.351Z,21.89
2023-05-06T14:04:03.894Z,21.89
2023-05-06T14:06:31.581Z,21.89
2023-05-06T14:08:58.890Z,21.90
2023-05-06T14:11:26.232Z,21.89
2023-05-06T14:13:56.387Z,21.89
2023-05-06T14:16:23.815Z,21.89
2023-05-06T14:18:51.297Z,21.89
2023-05-06T14:21:18.556Z,21.89
2023-05-06T14:23:45.893Z,21.88
2023-05-06T14:26:14.233Z,21.90
2023-05-06T14:28:41.558Z,21.90
2023-05-06T14:31:10.244Z,21.89
2023-05-06T14:33:38.610Z,21.88
2023-05-06T14:36:06.238Z,21.89
2023-05-06T14:38:33.621Z,21.89
2023-05-06T14:41:01.135Z,21.88
2023-05-06T14:43:28.562Z,21.88
2023-05-06T14:45:55.958Z,21.89
2023-05-06T14:48:25.427Z,21.89
2023-05-06T14:50:53.125Z,21.88
2023-05-06T14:53:20.540Z,21.89
2023-05-06T14:55:48.959Z,21.89
2023-05-06T14:58:16.329Z,21.88
2023-05-06T15:00:43.693Z,21.89
2023-05-06T15:03:11.119Z,21.89
2023-05-06T15:05:38.643Z,21.89
2023-05-06T15:08:06.177Z,21.89
2023-05-06T15:10:33.615Z,21.88
2023-05-06T15:13:01.136Z,21.89
2023-05-06T15:15:35.615Z,21.90
2023-05-06T15:18:05.248Z,21.90
2023-05-06T15:20:32.631Z,21.89
2023-05-06T15:23:00.037Z,21.90
2023-05-06T15:25:34.902Z,21.89
2023-05-06T15:28:05.087Z,21.89
2023-05-06T15:30:32.476Z,21.89
2023-05-06T15:33:01.645Z,21.89
2023-05-06T15:35:30.443Z,21.89
2023-05-06T15:37:59.026Z,21.90
2023-05-06T15:40:26.976Z,21.89
2023-05-06T15:42:54.400Z,21.89
2023-05-06T15:45:22.377Z,21.89
2023-05-06T15:47:49.720Z,21.89
2023-05-06T15:50:31.811Z,21.89
2023-05-06T15:53:02.114Z,21.90
2023-05-06T15:55:34.524Z,21.89
2023-05-06T15:58:08.693Z,21.89
2023-05-06T16:00:35.982Z,21.90
2023-05-06T16:03:03.778Z,21.90
2023-05-06T16:05:31.675Z,21.90
2023-05-06T16:07:59.073Z,21.90
2023-05-06T16:10:26.435Z,21.90
2023-05-06T16:12:54.319Z,21.91
2023-05-06T16:15:21.739Z,21.90
2023-05-06T16:17:49.077Z,21.90
2023-05-06T16:20:16.664Z,21.91
2023-05-06T16:22:49.935Z,21.90
2023-05-06T16:25:17.396Z,21.90
2023-05-06T16:27:44.721Z,21.90
2023-05-06T16:30:12.674Z,21.90
2023-05-06T16:32:40.282Z,21.90
2023-05-06T16:35:08.416Z,21.91
2023-05-06T16:37:36.490Z,21.90
2023-05-06T16:40:04.626Z,21.90
2023-05-06T16:42:31.882Z,21.90
2023-05-06T16:44:59.225Z,21.90
2023-05-06T16:47:28.295Z,21.90
2023-05-06T16:49:55.829Z,21.90
2023-05-06T16:52:23.242Z,21.90
2023-05-06T16:54:51.490Z,21.91
2023-05-06T16:57:18.973Z,21.91
2023-05-06T16:59:46.389Z,21.92
2023-05-06T17:02:13.779Z,21.92
2023-05-06T17:04:41.418Z,21.93
2023-05-06T17:07:11.094Z,21.94
2023-05-06T17:09:38.910Z,21.94
2023-05-06T17:12:07.477Z,21.94
2023-05-06T17:14:35.741Z,21.95
2023-05-06T17:17:05.429Z,21.96
2023-05-06T17:19:34.010Z,21.95
2023-05-06T17:22:01.449Z,21.96
2023-05-06T17:24:28.963Z,21.96
2023-05-06T17:26:56.427Z,21.96
2023-05-06T17:29:23.834Z,21.96
2023-05-06T17:31:51.265Z,21.96
2023-05-06T17:34:18.615Z,21.96
2023-05-06T17:36:45.988Z,21.97
2023-05-06T17:39:13.376Z,21.97
2023-05-06T17:41:40.938Z,21.98
2023-05-06T17:44:08.201Z,21.98
2023-05-06T17:46:35.463Z,22.02
2023-05-06T17:49:02.823Z,22.01
2023-05-06T17:51:30.070Z,22.01
2023-05-06T17:53:57.630Z,22.02
2023-05-06T17:56:25.112Z,22.02
2023-05-06T17:58:52.295Z,22.02
2023-05-06T18:01:19.706Z,22.03
2023-05-06T18:03:47.157Z,22.03
2023-05-06T18:06:14.512Z,22.04
2023-05-06T18:08:41.776Z,22.04
2023-05-06T18:11:09.091Z,22.04
2023-05-06T18:13:36.980Z,22.05
2023-05-06T18:16:04.933Z,22.05
2023-05-06T18:18:32.245Z,22.05
2023-05-06T18:20:59.505Z,22.04
2023-05-06T18:23:26.729Z,22.04
2023-05-06T18:25:53.995Z,22.03
2023-05-06T18:28:21.280Z,22.03
2023-05-06T18:30:48.514Z,22.02
2023-05-06T18:33:15.834Z,22.03
2023-05-06T18:35:43.170Z,22.02
2023-05-06T18:38:11.688Z,22.03
2023-05-06T18:40:39.648Z,22.03
2023-05-06T18:43:08.190Z,22.02
2023-05-06T18:45:35.607Z,22.03
2023-05-06T18:48:03.096Z,22.04
2023-05-06T18:50:30.359Z,22.03
2023-05-06T18:52:57.623Z,22.02
2023-05-06T18:55:24.831Z,22.04
2023-05-06T18:57:52.142Z,22.04
2023-05-06T19:00:21.744Z,22.04
2023-05-06T19:02:49.174Z,22.04
2023-05-06T19:05:16.862Z,22.04
2023-05-06T19:07:44.216Z,22.05
2023-05-06T19:10:13.944Z,22.05
2023-05-06T19:12:41.697Z,22.05
2023-05-06T19:15:10.178Z,22.06
2023-05-06T19:17:37.973Z,22.05
2023-05-06T19:20:05.987Z,22.06
2023-05-06T19:22:33.363Z,22.07
2023-05-06T19:25:00.840Z,22.07
2023-05-06T19:27:28.936Z,22.08
2023-05-06T19:29:56.605Z,22.09
2023-05-06T19:32:23.960Z,22.10
2023-05-06T19:34:51.290Z,22.09
2023-05-06T19:37:18.558Z,22.10
2023-05-06T19:39:46.579Z,22.11
2023-05-06T19:42:13.926Z,22.11
2023-05-06T19:44:41.237Z,22.11
2023-05-06T19:47:08.495Z,22.11
2023-05-06T19:49:35.884Z,22.11
2023-05-06T19:52:03.115Z,22.11
2023-05-06T19:54:30.534Z,22.11
2023-05-06T19:56:59.834Z,22.12
2023-05-06T19:59:27.914Z,22.12
2023-05-06T20:01:57.075Z,22.12
2023-05-06T20:04:24.370Z,22.13
2023-05-06T20:06:52.239Z,22.13
2023-05-06T20:09:19.685Z,22.13
2023-05-06T20:11:47.472Z,22.14
2023-05-06T20:14:14.869Z,22.14
2023-05-06T20:16:42.212Z,22.14
2023-05-06T20:19:09.616Z,22.13
2023-05-06T20:21:36.949Z,22.15
2023-05-06T20:24:04.445Z,22.14
2023-05-06T20:26:31.759Z,22.14
2023-05-06T20:28:59.234Z,22.15
2023-05-06T20:31:26.691Z,22.15
2023-05-06T20:33:53.981Z,22.14
2023-05-06T20:36:21.365Z,22.15
2023-05-06T20:38:50.117Z,22.15
2023-05-06T20:41:17.390Z,22.15
2023-05-06T20:43:44.603Z,22.17
2023-05-06T20:46:11.915Z,22.16
2023-05-06T20:48:39.171Z,22.16
2023-05-06T20:51:06.541Z,22.16
2023-05-06T20:53:33.934Z,22.17
2023-05-06T20:56:01.371Z,22.18
2023-05-06T20:58:29.527Z,22.18
2023-05-06T21:00:57.908Z,22.17
2023-05-06T21:03:26.659Z,22.18
2023-05-06T21:05:54.140Z,22.19
2023-05-06T21:08:21.424Z,22.19
2023-05-06T21:10:48.706Z,22.19
2023-05-06T21:13:16.011Z,22.19
2023-05-06T21:15:44.166Z,22.20
2023-05-06T21:18:11.467Z,22.18
2023-05-06T21:20:38.752Z,22.18
2023-05-06T21:23:05.998Z,22.18
2023-05-06T21:25:33.272Z,22.18
2023-05-06T21:28:05.334Z,22.18
2023-05-06T21:30:35.236Z,22.20
2023-05-06T21:33:02.973Z,22.20
2023-05-06T21:35:31.104Z,22.19
2023-05-06T21:37:58.497Z,22.19
2023-05-06T21:40:26.147Z,22.19
2023-05-06T21:42:53.474Z,22.19
2023-05-06T21:45:21.473Z,22.19
2023-05-06T21:47:49.103Z,22.18
2023-05-06T21:50:16.429Z,22.18
2023-05-06T21:52:43.850Z,22.18
2023-05-06T21:55:11.758Z,22.18
2023-05-06T21:57:39.324Z,22.18
2023-05-06T22:00:11.939Z,22.19
2023-05-06T22:02:40.605Z,22.18
2023-05-06T22:05:09.025Z,22.18
2023-05-06T22:07:36.598Z,22.17
2023-05-06T22:10:04.901Z,22.17
2023-05-06T22:12:32.181Z,22.18
2023-05-06T22:14:59.551Z,22.18
2023-05-06T22:17:27.323Z,22.18
2023-05-06T22:19:56.103Z,22.17
2023-05-06T22:22:25.256Z,22.18
2023-05-06T22:24:52.555Z,22.18
2023-05-06T22:27:19.785Z,22.18
2023-05-06T22:29:47.084Z,22.19
2023-05-06T22:32:14.329Z,22.18
2023-05-06T22:34:41.660Z,22.18
2023-05-06T22:37:09.844Z,22.18
2023-05-06T22:39:37.612Z,22.18
2023-05-06T22:42:04.975Z,22.19
2023-05-06T22:44:32.361Z,22.19
2023-05-06T22:46:59.956Z,22.19
2023-05-06T22:49:28.777Z,22.19
2023-05-06T22:51:57.024Z,22.19
2023-05-06T22:54:24.655Z,22.20
2023-05-06T22:56:52.086Z,22.19
2023-05-06T22:59:19.362Z,22.17
2023-05-06T23:01:46.831Z,22.17
2023-05-06T23:04:14.511Z,22.16
2023-05-06T23:06:42.359Z,22.16
2023-05-06T23:09:09.550Z,22.15
2023-05-06T23:11:36.804Z,22.16
2023-05-06T23:14:04.321Z,22.14
2023-05-06T23:16:31.626Z,22.15
2023-05-06T23:18:58.894Z,22.14
2023-05-06T23:21:26.804Z,22.14
2023-05-06T23:23:54.185Z,22.13
2023-05-06T23:26:21.510Z,22.12
2023-05-06T23:28:51.797Z,22.13
2023-05-06T23:31:19.140Z,22.13
2023-05-06T23:33:46.361Z,22.13
2023-05-06T23:36:13.677Z,22.14
2023-05-06T23:38:40.981Z,22.13
2023-05-06T23:41:08.263Z,22.12
2023-05-06T23:43:35.496Z,22.12
2023-05-06T23:46:02.834Z,22.11
2023-05-06T23:48:30.162Z,22.10
2023-05-06T23:50:57.413Z,22.11
2023-05-06T23:53:24.714Z,22.10
2023-05-06T23:55:51.963Z,22.11
2023-05-06T23:58:19.313Z,22.10
